Time;durP1;ratioP1;P1;durP2;ratioP2;P2;SDS_P1;SDS_P2;PMS_P1;PMS_P2;Temp;Humidity;BMP_temperature;BMP_pressure;BME280_temperature;BME280_humidity;BME280_pressure;Samples;Min_cycle;Max_cycle;Signal;HPM_P1;HPM_P2
2023/05/19 00:00:49;;;;;;;6.43;4.07;;;;;;;;;;4855177;29;20090;-93
2023/05/19 00:03:16;;;;;;;7.28;3.85;;;;;;;;;;4836253;29;20022;-93
2023/05/19 00:05:44;;;;;;;6.20;4.32;;;;;;;;;;4849657;29;20041;-94
2023/05/19 00:08:11;;;;;;;7.50;4.10;;;;;;;;;;4854382;29;20080;-94
2023/05/19 00:10:38;;;;;;;4.88;3.50;;;;;;;;;;4854170;29;20029;-92
2023/05/19 00:13:10;;;;;;;9.30;4.00;;;;;;;;;;4854361;29;20506;-94
2023/05/19 00:15:42;;;;;;;6.35;3.30;;;;;;;;;;4851206;29;20040;-92
2023/05/19 00:18:08;;;;;;;4.72;3.20;;;;;;;;;;4870147;29;20040;-93
2023/05/19 00:20:36;;;;;;;7.75;3.50;;;;;;;;;;4861460;29;20026;-91
2023/05/19 00:23:03;;;;;;;4.90;3.65;;;;;;;;;;4829752;29;20041;-96
2023/05/19 00:25:29;;;;;;;6.95;3.22;;;;;;;;;;4846583;29;20018;-92
2023/05/19 00:28:02;;;;;;;6.05;3.22;;;;;;;;;;4815501;29;20083;-90
2023/05/19 00:30:31;;;;;;;5.47;3.25;;;;;;;;;;4830137;29;20041;-94
2023/05/19 00:33:01;;;;;;;6.25;3.80;;;;;;;;;;4829306;29;20067;-96
2023/05/19 00:35:28;;;;;;;6.38;4.10;;;;;;;;;;4829688;29;20037;-95
2023/05/19 00:37:56;;;;;;;5.25;3.92;;;;;;;;;;4829151;29;20116;-91
2023/05/19 00:40:23;;;;;;;7.78;4.43;;;;;;;;;;4846745;29;20037;-93
2023/05/19 00:42:51;;;;;;;9.13;4.60;;;;;;;;;;4846895;29;20125;-91
2023/05/19 00:45:20;;;;;;;6.25;4.45;;;;;;;;;;4817438;29;20101;-96
2023/05/19 00:48:13;;;;;;;6.40;4.63;;;;;;;;;;4832479;29;20137;-92
2023/05/19 00:50:39;;;;;;;7.38;4.25;;;;;;;;;;4832109;29;20064;-93
2023/05/19 00:53:10;;;;;;;5.68;3.97;;;;;;;;;;4832885;29;20062;-93
2023/05/19 00:55:42;;;;;;;6.95;4.53;;;;;;;;;;4835241;29;20034;-96
2023/05/19 00:58:10;;;;;;;6.65;4.88;;;;;;;;;;4838281;29;20029;-90
2023/05/19 01:03:49;;;;;;;8.38;5.95;;;;;;;;;;4857259;29;20059;-94
2023/05/19 01:12:46;;;;;;;10.02;6.82;;;;;;;;;;4796118;30;20087;-90
2023/05/19 01:15:52;;;;;;;9.30;6.63;;;;;;;;;;4797098;29;20039;-96
2023/05/19 01:19:02;;;;;;;6.90;5.25;;;;;;;;;;4786211;30;20095;-96
2023/05/19 01:21:43;;;;;;;8.18;5.85;;;;;;;;;;4795394;30;20042;-92
2023/05/19 01:24:32;;;;;;;9.10;6.38;;;;;;;;;;4794752;29;20375;-94
2023/05/19 01:27:20;;;;;;;7.95;5.22;;;;;;;;;;4813998;29;20054;-95
2023/05/19 01:30:14;;;;;;;12.45;6.78;;;;;;;;;;4839841;29;20065;-92
2023/05/19 01:32:41;;;;;;;10.65;5.97;;;;;;;;;;4843694;29;20042;-96
2023/05/19 01:35:11;;;;;;;8.15;6.95;;;;;;;;;;4835736;29;20034;-93
2023/05/19 01:37:41;;;;;;;9.65;6.65;;;;;;;;;;4838633;29;20057;-94
2023/05/19 01:40:08;;;;;;;9.13;6.82;;;;;;;;;;4846998;29;20057;-96
2023/05/19 01:42:44;;;;;;;8.40;7.00;;;;;;;;;;4831119;29;20035;-94
2023/05/19 01:45:14;;;;;;;7.85;6.38;;;;;;;;;;4844867;29;20030;-92
2023/05/19 01:47:44;;;;;;;12.43;8.93;;;;;;;;;;4838456;29;20042;-95
2023/05/19 01:50:10;;;;;;;13.88;7.43;;;;;;;;;;4846718;29;20025;-95
2023/05/19 01:52:36;;;;;;;11.27;8.15;;;;;;;;;;4846539;29;20037;-95
2023/05/19 01:55:05;;;;;;;12.95;8.63;;;;;;;;;;4846771;29;20539;-95
2023/05/19 01:58:08;;;;;;;13.60;9.32;;;;;;;;;;4846311;29;20034;-96
2023/05/19 02:00:36;;;;;;;13.45;9.60;;;;;;;;;;4846121;29;20029;-94
2023/05/19 02:03:06;;;;;;;12.38;8.98;;;;;;;;;;4845947;29;20033;-96
2023/05/19 02:05:55;;;;;;;11.07;7.75;;;;;;;;;;4840341;29;20025;-95
2023/05/19 02:08:47;;;;;;;12.48;9.27;;;;;;;;;;4831648;29;20073;-96
2023/05/19 02:11:44;;;;;;;13.30;9.40;;;;;;;;;;4825249;29;20050;-95
2023/05/19 02:14:24;;;;;;;16.27;10.10;;;;;;;;;;4846067;29;20044;-96
2023/05/19 02:16:51;;;;;;;9.30;7.43;;;;;;;;;;4846745;29;20511;-95
2023/05/19 02:19:38;;;;;;;12.07;8.15;;;;;;;;;;4845915;29;20061;-94
2023/05/19 02:22:08;;;;;;;12.57;8.38;;;;;;;;;;4846143;29;20509;-94
2023/05/19 02:24:35;;;;;;;10.77;8.55;;;;;;;;;;4845392;29;20125;-95
2023/05/19 02:27:04;;;;;;;11.63;8.65;;;;;;;;;;4845860;29;20038;-96
2023/05/19 02:29:45;;;;;;;13.27;9.82;;;;;;;;;;4846289;29;20030;-94
2023/05/19 02:32:17;;;;;;;11.23;7.72;;;;;;;;;;4845674;29;20057;-95
2023/05/19 02:34:46;;;;;;;16.58;10.93;;;;;;;;;;4845572;29;20040;-94
2023/05/19 02:37:13;;;;;;;19.02;11.70;;;;;;;;;;4845268;29;20456;-95
2023/05/19 02:39:39;;;;;;;10.80;8.90;;;;;;;;;;4845573;29;20487;-95
2023/05/19 02:42:08;;;;;;;13.93;9.73;;;;;;;;;;4845508;29;20030;-94
2023/05/19 02:44:34;;;;;;;13.07;8.73;;;;;;;;;;4846474;29;20025;-94
2023/05/19 02:47:00;;;;;;;10.65;8.85;;;;;;;;;;4845724;29;20041;-95
2023/05/19 02:49:35;;;;;;;16.85;10.50;;;;;;;;;;4845236;29;20128;-95
2023/05/19 02:52:11;;;;;;;14.27;10.77;;;;;;;;;;4827249;29;20041;-95
2023/05/19 02:54:46;;;;;;;14.90;10.43;;;;;;;;;;4842159;29;20046;-95
2023/05/19 02:57:15;;;;;;;10.32;7.55;;;;;;;;;;4841958;29;20034;-95
2023/05/19 02:59:41;;;;;;;11.65;8.65;;;;;;;;;;4827255;29;20061;-93
2023/05/19 03:02:07;;;;;;;15.27;10.10;;;;;;;;;;4827629;29;20042;-95
2023/05/19 03:04:40;;;;;;;11.98;8.80;;;;;;;;;;4847749;29;20128;-95
2023/05/19 03:07:09;;;;;;;13.67;8.47;;;;;;;;;;4828292;29;20492;-96
2023/05/19 03:09:38;;;;;;;15.38;9.52;;;;;;;;;;4843143;29;20077;-94
2023/05/19 03:12:07;;;;;;;11.85;8.65;;;;;;;;;;4827252;29;20038;-95
2023/05/19 03:14:37;;;;;;;17.23;9.98;;;;;;;;;;4827736;29;20129;-94
2023/05/19 03:17:06;;;;;;;10.90;7.90;;;;;;;;;;4842796;29;20400;-96
2023/05/19 03:19:32;;;;;;;10.77;8.73;;;;;;;;;;4845011;29;20057;-94
2023/05/19 03:21:58;;;;;;;10.50;8.65;;;;;;;;;;4845245;29;20034;-96
2023/05/19 03:24:31;;;;;;;15.10;9.15;;;;;;;;;;4844814;29;20093;-95
2023/05/19 03:27:06;;;;;;;11.18;7.65;;;;;;;;;;4844966;29;20132;-96
2023/05/19 03:29:32;;;;;;;11.40;7.60;;;;;;;;;;4845077;29;20112;-95
2023/05/19 03:32:04;;;;;;;15.85;10.07;;;;;;;;;;4844878;29;20041;-96
2023/05/19 03:34:31;;;;;;;14.75;9.70;;;;;;;;;;4845335;29;20518;-95
2023/05/19 03:37:03;;;;;;;8.27;6.82;;;;;;;;;;4844941;29;20055;-95
2023/05/19 03:39:36;;;;;;;10.60;6.22;;;;;;;;;;4828520;29;20034;-93
2023/05/19 03:42:05;;;;;;;12.20;8.83;;;;;;;;;;4827076;29;20396;-92
2023/05/19 03:47:35;;;;;;;8.18;6.38;;;;;;;;;;4842765;29;20411;-91
2023/05/19 03:50:01;;;;;;;8.82;7.65;;;;;;;;;;4830314;29;20026;-93
2023/05/19 03:52:27;;;;;;;15.27;8.98;;;;;;;;;;4829735;29;20373;-94
2023/05/19 03:55:05;;;;;;;13.65;9.80;;;;;;;;;;4829667;29;20026;-94
2023/05/19 03:57:32;;;;;;;10.30;8.48;;;;;;;;;;4846689;29;20117;-91
2023/05/19 04:00:04;;;;;;;11.57;8.23;;;;;;;;;;4834849;29;20050;-96
2023/05/19 04:02:33;;;;;;;12.52;8.55;;;;;;;;;;4829785;29;20034;-92
2023/05/19 04:04:59;;;;;;;11.43;8.75;;;;;;;;;;4846802;29;20520;-91
2023/05/19 04:07:29;;;;;;;10.63;8.02;;;;;;;;;;4848413;29;20042;-94
2023/05/19 04:09:55;;;;;;;8.77;7.22;;;;;;;;;;4847735;29;20029;-94
2023/05/19 04:12:28;;;;;;;12.23;8.30;;;;;;;;;;4848013;29;20036;-95
2023/05/19 04:15:04;;;;;;;10.30;7.57;;;;;;;;;;4848029;29;20077;-95
2023/05/19 04:17:30;;;;;;;10.85;6.90;;;;;;;;;;4843033;29;20380;-93
2023/05/19 04:19:57;;;;;;;10.55;7.88;;;;;;;;;;4848382;29;20552;-96
2023/05/19 04:22:23;;;;;;;10.68;7.82;;;;;;;;;;4837779;29;20444;-96
2023/05/19 04:24:51;;;;;;;11.18;8.13;;;;;;;;;;4829436;29;20038;-95
2023/05/19 04:27:17;;;;;;;10.18;8.05;;;;;;;;;;4830076;29;20070;-96
2023/05/19 04:29:44;;;;;;;12.25;7.70;;;;;;;;;;4847803;29;20105;-95
2023/05/19 04:32:17;;;;;;;10.65;8.50;;;;;;;;;;4847764;29;20121;-94
2023/05/19 04:34:52;;;;;;;12.90;8.90;;;;;;;;;;4847235;29;20034;-95
2023/05/19 04:37:18;;;;;;;13.55;9.25;;;;;;;;;;4847266;29;20052;-93
2023/05/19 04:39:47;;;;;;;8.55;6.65;;;;;;;;;;4847042;29;20116;-93
2023/05/19 04:42:17;;;;;;;9.90;7.82;;;;;;;;;;4847294;29;20036;-92
2023/05/19 04:44:48;;;;;;;10.55;7.85;;;;;;;;;;4845062;29;20083;-92
2023/05/19 04:47:20;;;;;;;9.13;6.88;;;;;;;;;;4828669;29;20053;-92
2023/05/19 04:49:46;;;;;;;14.63;8.23;;;;;;;;;;4846419;29;20410;-92
2023/05/19 05:01:08;;;;;;;6.90;5.20;;;;;;;;;;4845315;29;20033;-95
2023/05/19 05:03:34;;;;;;;6.57;4.47;;;;;;;;;;4838747;29;20045;-96
2023/05/19 05:06:01;;;;;;;8.25;6.72;;;;;;;;;;4828814;29;20034;-95
2023/05/19 05:08:29;;;;;;;9.23;6.03;;;;;;;;;;4840679;29;20089;-96
2023/05/19 05:10:58;;;;;;;4.45;3.83;;;;;;;;;;4846461;29;20042;-95
2023/05/19 05:13:24;;;;;;;8.90;4.18;;;;;;;;;;4846544;29;20056;-94
2023/05/19 05:15:51;;;;;;;10.70;5.90;;;;;;;;;;4846613;29;20482;-96
2023/05/19 05:18:20;;;;;;;5.68;4.05;;;;;;;;;;4846650;29;20041;-95
2023/05/19 05:20:55;;;;;;;5.22;3.63;;;;;;;;;;4833065;29;20066;-95
2023/05/19 05:23:21;;;;;;;6.18;4.10;;;;;;;;;;4829191;29;20033;-96
2023/05/19 05:25:48;;;;;;;4.60;3.17;;;;;;;;;;4833946;29;20167;-96
2023/05/19 05:28:28;;;;;;;7.78;3.58;;;;;;;;;;4847532;29;20029;-96
2023/05/19 05:30:56;;;;;;;6.00;3.60;;;;;;;;;;4840181;29;20041;-96
2023/05/19 05:33:28;;;;;;;6.25;4.25;;;;;;;;;;4847354;29;20040;-92
2023/05/19 05:35:57;;;;;;;7.00;3.97;;;;;;;;;;4834066;29;20034;-92
2023/05/19 05:38:29;;;;;;;6.85;3.92;;;;;;;;;;4844229;29;20487;-91
2023/05/19 05:40:55;;;;;;;5.68;3.80;;;;;;;;;;4834686;29;20159;-90
2023/05/19 05:43:21;;;;;;;7.22;4.60;;;;;;;;;;4828006;29;20479;-91
2023/05/19 05:45:47;;;;;;;6.43;4.95;;;;;;;;;;4844864;29;20034;-95
2023/05/19 05:48:14;;;;;;;8.77;5.15;;;;;;;;;;4827840;29;20121;-94
2023/05/19 05:50:45;;;;;;;6.80;4.68;;;;;;;;;;4836371;29;20026;-92
2023/05/19 05:53:19;;;;;;;8.55;4.55;;;;;;;;;;4846094;29;20032;-91
2023/05/19 05:55:52;;;;;;;8.20;4.90;;;;;;;;;;4846298;29;20022;-92
2023/05/19 05:58:20;;;;;;;8.80;4.82;;;;;;;;;;4845667;29;20031;-90
2023/05/19 06:00:48;;;;;;;8.07;4.85;;;;;;;;;;4845725;29;20058;-91
2023/05/19 06:03:20;;;;;;;7.50;5.13;;;;;;;;;;4845644;29;20072;-94
2023/05/19 06:05:53;;;;;;;11.17;6.13;;;;;;;;;;4846094;29;20052;-94
2023/05/19 06:08:19;;;;;;;8.52;5.07;;;;;;;;;;4846184;29;20118;-93
2023/05/19 06:10:47;;;;;;;8.98;5.75;;;;;;;;;;4845332;29;20470;-92
2023/05/19 06:13:16;;;;;;;11.50;6.78;;;;;;;;;;4845548;29;20493;-90
2023/05/19 06:15:42;;;;;;;10.60;6.20;;;;;;;;;;4845581;29;20029;-92
2023/05/19 06:18:09;;;;;;;10.43;5.60;;;;;;;;;;4829400;29;20037;-91
2023/05/19 06:20:38;;;;;;;12.73;5.72;;;;;;;;;;4827925;29;20075;-93
2023/05/19 06:23:04;;;;;;;10.73;6.55;;;;;;;;;;4827331;29;20030;-95
2023/05/19 06:25:30;;;;;;;11.05;6.38;;;;;;;;;;4845479;29;20040;-91
2023/05/19 06:27:59;;;;;;;12.20;6.25;;;;;;;;;;4846112;29;20060;-94
2023/05/19 06:30:38;;;;;;;12.20;6.35;;;;;;;;;;4828858;29;20038;-94
2023/05/19 06:33:04;;;;;;;14.65;7.60;;;;;;;;;;4827438;29;20429;-93
2023/05/19 06:35:33;;;;;;;15.80;8.57;;;;;;;;;;4827295;29;20090;-93
2023/05/19 06:37:59;;;;;;;12.25;7.00;;;;;;;;;;4826794;29;20114;-95
2023/05/19 06:40:25;;;;;;;12.43;7.45;;;;;;;;;;4827327;29;20030;-92
2023/05/19 06:42:52;;;;;;;12.68;6.53;;;;;;;;;;4826852;29;20112;-91
2023/05/19 06:45:20;;;;;;;9.82;6.32;;;;;;;;;;4841926;29;20128;-90
2023/05/19 06:47:47;;;;;;;12.38;7.30;;;;;;;;;;4845357;29;20125;-93
2023/05/19 06:50:13;;;;;;;12.15;6.75;;;;;;;;;;4845654;29;20058;-89
2023/05/19 06:52:39;;;;;;;9.80;6.90;;;;;;;;;;4845810;29;20036;-90
2023/05/19 06:55:05;;;;;;;10.52;6.20;;;;;;;;;;4845448;29;20475;-90
2023/05/19 06:57:31;;;;;;;10.05;6.85;;;;;;;;;;4845747;29;20033;-93
2023/05/19 06:59:57;;;;;;;11.73;6.55;;;;;;;;;;4845595;29;20029;-92
2023/05/19 07:02:24;;;;;;;11.35;6.60;;;;;;;;;;4845272;29;20084;-96
2023/05/19 07:04:51;;;;;;;11.50;7.68;;;;;;;;;;4845621;29;20025;-94
2023/05/19 07:07:17;;;;;;;14.38;8.13;;;;;;;;;;4845224;29;20049;-92
2023/05/19 07:09:43;;;;;;;11.27;6.93;;;;;;;;;;4845233;29;20061;-92
2023/05/19 07:12:10;;;;;;;9.18;6.03;;;;;;;;;;4845177;29;20041;-94
2023/05/19 07:14:37;;;;;;;8.98;6.10;;;;;;;;;;4845238;29;20037;-94
2023/05/19 07:17:10;;;;;;;11.70;7.55;;;;;;;;;;4845115;29;20046;-94
2023/05/19 07:19:36;;;;;;;11.95;8.88;;;;;;;;;;4847146;29;20040;-96
2023/05/19 07:22:02;;;;;;;18.98;14.13;;;;;;;;;;4838644;29;20399;-92
2023/05/19 07:24:29;;;;;;;14.85;11.60;;;;;;;;;;4848719;29;20137;-93
2023/05/19 07:26:55;;;;;;;12.20;10.02;;;;;;;;;;4848885;29;20407;-96
2023/05/19 07:29:21;;;;;;;13.93;10.98;;;;;;;;;;4848667;29;20028;-94
2023/05/19 07:31:47;;;;;;;12.65;10.25;;;;;;;;;;4849791;29;20383;-94
2023/05/19 07:34:21;;;;;;;8.80;6.55;;;;;;;;;;4850579;29;20108;-95
2023/05/19 07:36:48;;;;;;;8.88;6.25;;;;;;;;;;4862702;29;20057;-96
2023/05/19 07:39:16;;;;;;;7.22;5.18;;;;;;;;;;4852485;29;20047;-96
2023/05/19 07:41:43;;;;;;;9.55;6.90;;;;;;;;;;4853138;29;20031;-94
2023/05/19 07:44:09;;;;;;;8.40;6.03;;;;;;;;;;4835183;29;20127;-91
2023/05/19 07:46:36;;;;;;;8.50;6.03;;;;;;;;;;4847708;29;20090;-95
2023/05/19 07:49:05;;;;;;;8.07;6.55;;;;;;;;;;4848284;29;20029;-94
2023/05/19 07:51:32;;;;;;;8.32;5.88;;;;;;;;;;4848403;29;20037;-96
2023/05/19 07:54:04;;;;;;;7.22;5.80;;;;;;;;;;4848482;29;20029;-96
2023/05/19 07:56:30;;;;;;;7.97;6.18;;;;;;;;;;4848535;29;20116;-96
2023/05/19 07:58:56;;;;;;;7.35;5.50;;;;;;;;;;4848233;29;20497;-95
2023/05/19 08:01:22;;;;;;;9.05;6.78;;;;;;;;;;4848685;29;20025;-95
2023/05/19 08:03:48;;;;;;;10.07;7.13;;;;;;;;;;4848301;29;20101;-96
2023/05/19 08:06:17;;;;;;;7.05;5.65;;;;;;;;;;4836835;29;20042;-94
2023/05/19 08:08:43;;;;;;;8.45;6.57;;;;;;;;;;4829981;29;20034;-94
2023/05/19 08:11:09;;;;;;;9.52;7.03;;;;;;;;;;4839788;29;20033;-96
2023/05/19 08:13:47;;;;;;;8.95;6.88;;;;;;;;;;4847887;29;20155;-95
2023/05/19 08:16:16;;;;;;;10.80;7.70;;;;;;;;;;4848743;29;20044;-96
2023/05/19 08:18:42;;;;;;;10.68;7.95;;;;;;;;;;4849424;29;20037;-95
2023/05/19 08:21:09;;;;;;;12.02;8.45;;;;;;;;;;4833260;29;20038;-94
2023/05/19 08:23:36;;;;;;;11.43;8.75;;;;;;;;;;4836648;29;20037;-96
2023/05/19 08:26:02;;;;;;;11.00;7.60;;;;;;;;;;4836889;29;20075;-95
2023/05/19 08:28:32;;;;;;;16.95;15.07;;;;;;;;;;4849220;29;20133;-96
2023/05/19 08:30:58;;;;;;;12.60;9.50;;;;;;;;;;4834622;29;20112;-96
2023/05/19 08:33:28;;;;;;;12.38;8.27;;;;;;;;;;4843593;29;20034;-96
2023/05/19 08:35:59;;;;;;;9.95;7.70;;;;;;;;;;4842258;29;20029;-96
2023/05/19 08:38:26;;;;;;;11.02;8.32;;;;;;;;;;4855949;29;20368;-95
2023/05/19 08:40:53;;;;;;;12.93;9.15;;;;;;;;;;4839937;29;20048;-96
2023/05/19 08:43:22;;;;;;;9.77;7.63;;;;;;;;;;4856207;29;20033;-96
2023/05/19 08:45:49;;;;;;;9.00;7.57;;;;;;;;;;4836606;29;20038;-96
2023/05/19 08:48:16;;;;;;;10.63;8.32;;;;;;;;;;4822261;29;20042;-96
2023/05/19 08:50:47;;;;;;;10.35;8.40;;;;;;;;;;4856950;29;20067;-96
2023/05/19 08:53:40;;;;;;;9.60;8.13;;;;;;;;;;4820294;29;20124;-96
2023/05/19 08:56:14;;;;;;;9.55;7.28;;;;;;;;;;4846987;29;20029;-96
2023/05/19 08:59:20;;;;;;;9.50;7.82;;;;;;;;;;4836847;29;20026;-96
2023/05/19 09:01:48;;;;;;;9.88;8.18;;;;;;;;;;4863401;29;20499;-94
2023/05/19 09:04:19;;;;;;;8.73;7.53;;;;;;;;;;4842242;29;20029;-95
2023/05/19 09:06:45;;;;;;;11.20;8.35;;;;;;;;;;4820124;29;20046;-96
2023/05/19 09:09:16;;;;;;;10.65;8.60;;;;;;;;;;4838370;29;20025;-96
2023/05/19 09:11:47;;;;;;;8.57;7.63;;;;;;;;;;4854818;29;20112;-96
2023/05/19 09:14:16;;;;;;;10.02;8.90;;;;;;;;;;4852451;29;20509;-92
2023/05/19 09:16:43;;;;;;;10.40;8.82;;;;;;;;;;4837974;29;20124;-94
2023/05/19 09:19:16;;;;;;;11.00;9.52;;;;;;;;;;4833919;29;20038;-95
2023/05/19 09:21:45;;;;;;;10.18;8.82;;;;;;;;;;4832268;29;20037;-96
2023/05/19 09:24:11;;;;;;;11.00;8.57;;;;;;;;;;4833193;29;20041;-94
2023/05/19 09:27:14;;;;;;;9.95;8.57;;;;;;;;;;4819687;29;20137;-94
2023/05/19 09:29:54;;;;;;;9.40;8.40;;;;;;;;;;4848587;29;20048;-95
2023/05/19 09:32:27;;;;;;;11.73;10.38;;;;;;;;;;4834688;29;20120;-95
2023/05/19 09:35:04;;;;;;;9.27;8.27;;;;;;;;;;4829598;29;20076;-96
2023/05/19 09:37:31;;;;;;;8.77;7.20;;;;;;;;;;4827522;29;20042;-94
2023/05/19 09:39:57;;;;;;;9.05;6.60;;;;;;;;;;4828743;29;20037;-95
2023/05/19 09:42:28;;;;;;;7.25;6.50;;;;;;;;;;4828484;29;20034;-93
2023/05/19 09:45:01;;;;;;;9.05;7.03;;;;;;;;;;4828660;29;20125;-95
2023/05/19 09:47:28;;;;;;;7.88;7.03;;;;;;;;;;4830228;29;20155;-92
2023/05/19 09:49:54;;;;;;;7.25;6.32;;;;;;;;;;4831273;29;20514;-92
2023/05/19 09:52:21;;;;;;;9.38;6.70;;;;;;;;;;4829993;29;20476;-94
2023/05/19 09:55:13;;;;;;;6.82;6.13;;;;;;;;;;4845201;29;20060;-96
2023/05/19 09:57:45;;;;;;;8.15;6.95;;;;;;;;;;4855159;29;20041;-93
2023/05/19 10:00:41;;;;;;;8.45;7.18;;;;;;;;;;4848306;29;20030;-96
2023/05/19 10:03:25;;;;;;;6.80;6.05;;;;;;;;;;4835355;29;20625;-93
2023/05/19 10:06:05;;;;;;;;;;;;;;;;;;;;;
2023/05/19 10:08:51;;;;;;;8.45;6.68;;;;;;;;;;4850190;29;20068;-96
2023/05/19 10:11:18;;;;;;;8.20;7.00;;;;;;;;;;4851658;29;20048;-92
2023/05/19 10:13:46;;;;;;;9.02;6.97;;;;;;;;;;4837304;29;20042;-92
2023/05/19 10:16:14;;;;;;;9.07;7.30;;;;;;;;;;4829242;29;20026;-93
2023/05/19 10:19:11;;;;;;;7.35;6.55;;;;;;;;;;4830999;29;20030;-96
2023/05/19 10:21:46;;;;;;;7.88;7.07;;;;;;;;;;4832886;29;20034;-96
2023/05/19 10:24:34;;;;;;;8.45;7.13;;;;;;;;;;4827492;29;20488;-95
2023/05/19 10:27:03;;;;;;;9.63;7.13;;;;;;;;;;4834289;29;20076;-96
2023/05/19 10:29:31;;;;;;;7.32;6.63;;;;;;;;;;4830531;29;20041;-94
2023/05/19 10:32:00;;;;;;;7.03;6.32;;;;;;;;;;4833812;29;20090;-95
2023/05/19 10:34:49;;;;;;;7.68;6.88;;;;;;;;;;4825731;29;20140;-96
2023/05/19 10:37:44;;;;;;;6.63;5.70;;;;;;;;;;4856091;29;20065;-95
2023/05/19 10:40:20;;;;;;;5.85;5.18;;;;;;;;;;4855004;29;20037;-96
2023/05/19 10:43:06;;;;;;;9.68;5.95;;;;;;;;;;4854060;29;20037;-96
2023/05/19 10:45:45;;;;;;;7.30;5.80;;;;;;;;;;4873018;29;20038;-96
2023/05/19 10:48:21;;;;;;;6.97;6.13;;;;;;;;;;4840513;29;20121;-95
2023/05/19 10:51:22;;;;;;;6.53;5.40;;;;;;;;;;4855049;29;20043;-94
2023/05/19 10:53:49;;;;;;;4.80;4.30;;;;;;;;;;4818671;29;20041;-91
2023/05/19 10:56:41;;;;;;;6.80;4.45;;;;;;;;;;4848915;29;20121;-96
2023/05/19 10:59:07;;;;;;;4.50;4.10;;;;;;;;;;4850240;29;20029;-95
2023/05/19 11:01:42;;;;;;;5.65;5.15;;;;;;;;;;5304560;23;20912;-94
2023/05/19 11:04:40;;;;;;;6.53;5.40;;;;;;;;;;4855064;29;20029;-95
2023/05/19 11:10:49;;;;;;;7.30;5.70;;;;;;;;;;4763201;30;20035;-95
2023/05/19 11:13:21;;;;;;;5.68;5.18;;;;;;;;;;4751279;30;20102;-94
2023/05/19 11:15:52;;;;;;;5.95;5.38;;;;;;;;;;4762441;30;20048;-95
2023/05/19 11:18:31;;;;;;;6.30;5.68;;;;;;;;;;4754818;30;20643;-94
2023/05/19 11:21:03;;;;;;;6.03;5.40;;;;;;;;;;4753593;30;20197;-95
2023/05/19 11:23:38;;;;;;;5.93;5.03;;;;;;;;;;4752533;30;20028;-96
2023/05/19 11:26:07;;;;;;;6.75;5.55;;;;;;;;;;4736194;30;20040;-91
2023/05/19 11:28:37;;;;;;;5.72;5.20;;;;;;;;;;4736467;30;20052;-93
2023/05/19 11:31:06;;;;;;;10.10;5.45;;;;;;;;;;4798481;29;20495;-96
2023/05/19 11:33:51;;;;;;;5.90;5.30;;;;;;;;;;4826532;29;20033;-94
2023/05/19 11:36:22;;;;;;;4.45;4.05;;;;;;;;;;4826605;29;20034;-94
2023/05/19 11:38:50;;;;;;;5.68;4.05;;;;;;;;;;4827801;29;20034;-92
2023/05/19 11:41:16;;;;;;;7.55;5.50;;;;;;;;;;4842080;29;20025;-94
2023/05/19 11:43:42;;;;;;;6.43;5.20;;;;;;;;;;4864874;29;20048;-94
2023/05/19 11:46:16;;;;;;;5.75;5.18;;;;;;;;;;4874980;29;20045;-94
2023/05/19 11:48:42;;;;;;;5.10;4.60;;;;;;;;;;4861913;29;20045;-95
2023/05/19 11:51:09;;;;;;;5.22;4.63;;;;;;;;;;4856078;29;20036;-96
2023/05/19 11:53:37;;;;;;;5.43;3.90;;;;;;;;;;4848425;29;20090;-96
2023/05/19 11:56:03;;;;;;;3.83;3.40;;;;;;;;;;4862466;29;20076;-94
2023/05/19 11:58:52;;;;;;;5.38;4.57;;;;;;;;;;4870467;29;20044;-94
2023/05/19 12:05:04;;;;;;;4.43;3.30;;;;;;;;;;4854846;29;20121;-96
2023/05/19 13:38:56;;;;;;;2.17;1.50;;;;;;;;;;2471195;23;20250;-89
2023/05/19 13:41:28;;;;;;;5.70;1.45;;;;;;;;;;4826689;29;20302;-94
2023/05/19 13:43:54;;;;;;;4.43;1.50;;;;;;;;;;4845717;29;20570;-94
2023/05/19 13:46:20;;;;;;;13.77;2.13;;;;;;;;;;4828311;29;20042;-92
2023/05/19 13:48:47;;;;;;;6.50;1.52;;;;;;;;;;4817875;29;20042;-92
2023/05/19 13:51:13;;;;;;;2.83;1.50;;;;;;;;;;4825223;29;20095;-93
2023/05/19 13:53:40;;;;;;;2.10;1.50;;;;;;;;;;4810023;29;20545;-90
2023/05/19 13:56:06;;;;;;;2.17;1.30;;;;;;;;;;4817529;29;20062;-94
2023/05/19 13:58:32;;;;;;;3.67;1.45;;;;;;;;;;4809536;29;20034;-96
2023/05/19 14:00:58;;;;;;;3.22;1.50;;;;;;;;;;4810003;29;20034;-93
2023/05/19 14:03:25;;;;;;;3.97;1.40;;;;;;;;;;4817653;29;20050;-94
2023/05/19 14:05:51;;;;;;;6.82;1.67;;;;;;;;;;4833739;29;20069;-93
2023/05/19 14:08:18;;;;;;;2.72;1.20;;;;;;;;;;4809675;29;20129;-95
2023/05/19 14:10:47;;;;;;;2.25;1.42;;;;;;;;;;4809506;29;20030;-91
2023/05/19 14:13:13;;;;;;;3.08;1.70;;;;;;;;;;4809819;29;20483;-92
2023/05/19 14:15:40;;;;;;;2.33;1.50;;;;;;;;;;4809715;29;20026;-94
2023/05/19 14:18:06;;;;;;;2.05;1.40;;;;;;;;;;4822623;29;20113;-95
2023/05/19 14:20:32;;;;;;;3.70;1.98;;;;;;;;;;4826554;29;20499;-95
2023/05/19 14:23:04;;;;;;;2.95;2.10;;;;;;;;;;4824955;29;20022;-96
2023/05/19 14:25:30;;;;;;;1.88;1.50;;;;;;;;;;4824583;29;20043;-94
2023/05/19 14:27:59;;;;;;;3.42;1.70;;;;;;;;;;4824615;29;20046;-94
2023/05/19 14:30:26;;;;;;;7.05;1.40;;;;;;;;;;4824835;29;20030;-92
2023/05/19 14:32:52;;;;;;;4.45;1.60;;;;;;;;;;4825945;29;20026;-95
2023/05/19 14:35:18;;;;;;;2.25;1.50;;;;;;;;;;4825382;29;20030;-96
2023/05/19 14:37:54;;;;;;;2.17;1.60;;;;;;;;;;4828423;29;20034;-94
2023/05/19 14:40:20;;;;;;;2.83;1.55;;;;;;;;;;4834594;29;20118;-93
2023/05/19 14:42:46;;;;;;;2.00;1.30;;;;;;;;;;4828078;29;20034;-95
2023/05/19 14:45:13;;;;;;;6.25;1.55;;;;;;;;;;4829843;29;20038;-96
2023/05/19 14:47:40;;;;;;;2.08;1.60;;;;;;;;;;4845219;29;20116;-91
2023/05/19 14:50:06;;;;;;;2.65;1.50;;;;;;;;;;4828585;29;20030;-94
2023/05/19 14:52:32;;;;;;;2.65;1.48;;;;;;;;;;4827831;29;20057;-94
2023/05/19 14:54:59;;;;;;;3.05;1.67;;;;;;;;;;4827746;29;20030;-93
2023/05/19 14:57:25;;;;;;;4.10;1.63;;;;;;;;;;4829494;29;20038;-96
2023/05/19 14:59:51;;;;;;;2.97;1.48;;;;;;;;;;4828482;29;20034;-93
2023/05/19 15:02:43;;;;;;;2.63;1.70;;;;;;;;;;4830450;29;20174;-91
2023/05/19 15:05:10;;;;;;;2.42;1.60;;;;;;;;;;4828667;29;20092;-93
2023/05/19 15:07:36;;;;;;;4.75;1.70;;;;;;;;;;4843600;29;20042;-92
2023/05/19 15:12:40;;;;;;;5.75;1.70;;;;;;;;;;5032868;23;20064;-91
2023/05/19 15:20:58;;;;;;;2.42;1.70;;;;;;;;;;4908545;23;20050;-96
2023/05/19 15:31:54;;;;;;;2.38;1.85;;;;;;;;;;4837446;29;20034;-94
2023/05/19 15:34:51;;;;;;;2.63;1.88;;;;;;;;;;4811103;29;20102;-95
2023/05/19 15:38:06;;;;;;;;;;;;;;;;;;;;;
2023/05/19 15:40:28;;;;;;;3.00;1.83;;;;;;;;;;5091234;24;20184;-94
2023/05/19 15:45:30;;;;;;;2.97;2.10;;;;;;;;;;5007153;23;20267;-93
2023/05/19 15:47:56;;;;;;;4.28;2.00;;;;;;;;;;4851800;29;20041;-95
2023/05/19 15:50:45;;;;;;;3.55;2.45;;;;;;;;;;4851955;29;20085;-95
2023/05/19 15:57:26;;;;;;;;;;;;;;;;;;;;;
2023/05/19 16:00:06;;;;;;;2.83;2.42;;;;;;;;;;4767099;30;20063;-96
2023/05/19 16:02:37;;;;;;;2.50;2.10;;;;;;;;;;4741631;30;20036;-95
2023/05/19 16:05:24;;;;;;;3.67;2.40;;;;;;;;;;4942788;23;20113;-96
2023/05/19 16:08:05;;;;;;;;;;;;;;;;;;;;;
2023/05/19 16:10:34;;;;;;;3.00;2.40;;;;;;;;;;4856873;29;20089;-96
2023/05/19 16:13:03;;;;;;;4.03;2.78;;;;;;;;;;4854178;29;20090;-95
2023/05/19 16:15:29;;;;;;;3.45;2.45;;;;;;;;;;4878245;29;20148;-95
2023/05/19 16:18:12;;;;;;;5.65;3.08;;;;;;;;;;4862441;29;20133;-96
2023/05/19 16:21:01;;;;;;;3.33;2.40;;;;;;;;;;4851971;29;20032;-95
2023/05/19 16:23:28;;;;;;;4.68;2.67;;;;;;;;;;4850034;29;20038;-95
2023/05/19 16:25:56;;;;;;;3.05;2.72;;;;;;;;;;4831615;29;20479;-96
2023/05/19 16:28:22;;;;;;;2.80;2.30;;;;;;;;;;4856464;29;20471;-96
2023/05/19 16:31:00;;;;;;;2.90;2.30;;;;;;;;;;4849194;29;20037;-95
2023/05/19 16:33:27;;;;;;;3.63;2.67;;;;;;;;;;4851414;29;20131;-96
2023/05/19 16:35:53;;;;;;;3.40;2.80;;;;;;;;;;4853655;29;20026;-96
2023/05/19 16:38:20;;;;;;;3.47;2.70;;;;;;;;;;4850259;29;20061;-96
2023/05/19 16:40:46;;;;;;;3.72;2.45;;;;;;;;;;4850558;29;20029;-96
2023/05/19 16:43:12;;;;;;;3.38;2.80;;;;;;;;;;4848240;29;20025;-96
2023/05/19 16:45:38;;;;;;;3.35;2.75;;;;;;;;;;4849630;29;20058;-96
2023/05/19 16:48:04;;;;;;;4.70;3.20;;;;;;;;;;4849988;29;20071;-96
2023/05/19 16:50:30;;;;;;;3.22;2.80;;;;;;;;;;4859993;29;20025;-96
2023/05/19 16:52:56;;;;;;;3.75;2.75;;;;;;;;;;4853817;29;20120;-96
2023/05/19 16:55:24;;;;;;;4.38;2.70;;;;;;;;;;4865569;29;20033;-96
2023/05/19 16:57:50;;;;;;;2.95;2.53;;;;;;;;;;4868966;29;20074;-93
2023/05/19 17:00:38;;;;;;;3.38;2.75;;;;;;;;;;4873972;29;20025;-96
2023/05/19 17:03:04;;;;;;;3.80;3.40;;;;;;;;;;4836326;29;20030;-96
2023/05/19 17:05:37;;;;;;;4.85;3.83;;;;;;;;;;4833969;29;20079;-95
2023/05/19 17:08:04;;;;;;;5.50;3.38;;;;;;;;;;4843741;29;21562;-96
2023/05/19 17:10:30;;;;;;;5.53;3.42;;;;;;;;;;4875972;29;20057;-96
2023/05/19 17:12:56;;;;;;;3.90;2.90;;;;;;;;;;4866973;29;20104;-96
2023/05/19 17:15:23;;;;;;;3.55;3.05;;;;;;;;;;4870753;29;20037;-96
2023/05/19 17:17:49;;;;;;;3.47;3.05;;;;;;;;;;4875522;29;20033;-96
2023/05/19 17:20:18;;;;;;;4.50;3.20;;;;;;;;;;4850969;29;20475;-96
2023/05/19 17:22:44;;;;;;;5.18;4.22;;;;;;;;;;4846813;29;20064;-94
2023/05/19 17:25:11;;;;;;;3.63;3.15;;;;;;;;;;4857531;29;20128;-95
2023/05/19 17:53:14;;;;;;;5.13;4.63;;;;;;;;;;5267527;24;19928;-96